sensor_id;sensor_type;location;lat;lon;timestamp;pressure;altitude;pressure_sealevel;temperature;humidity
37904;BME280;23738;50.422;18.758;2023-02-02T00:01:00;97640.02;;;0.87;91.05
37904;BME280;23738;50.422;18.758;2023-02-02T00:03:27;97637.51;;;0.87;90.96
37904;BME280;23738;50.422;18.758;2023-02-02T00:05:55;97640.05;;;0.86;90.86
37904;BME280;23738;50.422;18.758;2023-02-02T00:08:23;97640.27;;;0.86;91.10
37904;BME280;23738;50.422;18.758;2023-02-02T00:10:50;97639.86;;;0.83;91.05
37904;BME280;23738;50.422;18.758;2023-02-02T00:13:17;97642.71;;;0.82;91.17
37904;BME280;23738;50.422;18.758;2023-02-02T00:15:44;97648.18;;;0.81;91.14
37904;BME280;23738;50.422;18.758;2023-02-02T00:18:12;97649.87;;;0.82;91.06
37904;BME280;23738;50.422;18.758;2023-02-02T00:20:39;97652.77;;;0.82;90.96
37904;BME280;23738;50.422;18.758;2023-02-02T00:23:06;97649.72;;;0.78;91.11
37904;BME280;23738;50.422;18.758;2023-02-02T00:25:34;97653.27;;;0.81;91.22
37904;BME280;23738;50.422;18.758;2023-02-02T00:28:01;97656.25;;;0.79;91.46
37904;BME280;23738;50.422;18.758;2023-02-02T00:30:28;97657.35;;;0.78;91.65
37904;BME280;23738;50.422;18.758;2023-02-02T00:32:55;97657.33;;;0.78;91.39
37904;BME280;23738;50.422;18.758;2023-02-02T00:35:23;97658.15;;;0.79;91.55
37904;BME280;23738;50.422;18.758;2023-02-02T00:37:50;97657.13;;;0.79;91.48
37904;BME280;23738;50.422;18.758;2023-02-02T00:40:19;97652.14;;;0.78;91.71
37904;BME280;23738;50.422;18.758;2023-02-02T00:42:46;97659.80;;;0.80;91.70
37904;BME280;23738;50.422;18.758;2023-02-02T00:45:16;97658.02;;;0.81;91.89
37904;BME280;23738;50.422;18.758;2023-02-02T00:47:45;97653.02;;;0.81;91.78
37904;BME280;23738;50.422;18.758;2023-02-02T00:50:15;97659.39;;;0.82;92.07
37904;BME280;23738;50.422;18.758;2023-02-02T00:52:42;97661.02;;;0.81;91.90
37904;BME280;23738;50.422;18.758;2023-02-02T00:55:11;97660.46;;;0.81;91.99
37904;BME280;23738;50.422;18.758;2023-02-02T00:57:39;97662.79;;;0.86;91.74
37904;BME280;23738;50.422;18.758;2023-02-02T01:00:11;97663.17;;;0.89;91.77
37904;BME280;23738;50.422;18.758;2023-02-02T01:02:39;97662.14;;;0.90;92.35
37904;BME280;23738;50.422;18.758;2023-02-02T01:05:08;97660.61;;;0.88;92.21
37904;BME280;23738;50.422;18.758;2023-02-02T01:07:37;97661.59;;;0.89;92.15
37904;BME280;23738;50.422;18.758;2023-02-02T01:10:06;97658.88;;;0.90;92.19
37904;BME280;23738;50.422;18.758;2023-02-02T01:12:34;97661.83;;;0.92;92.36
37904;BME280;23738;50.422;18.758;2023-02-02T01:15:01;97664.33;;;0.92;92.35
37904;BME280;23738;50.422;18.758;2023-02-02T01:17:29;97669.41;;;0.94;92.28
37904;BME280;23738;50.422;18.758;2023-02-02T01:19:56;97664.95;;;0.95;92.29
37904;BME280;23738;50.422;18.758;2023-02-02T01:22:23;97675.25;;;0.99;92.40
37904;BME280;23738;50.422;18.758;2023-02-02T01:24:51;97671.98;;;1.01;92.47
37904;BME280;23738;50.422;18.758;2023-02-02T01:27:18;97671.33;;;1.00;92.49
37904;BME280;23738;50.422;18.758;2023-02-02T01:29:46;97668.79;;;1.00;92.61
37904;BME280;23738;50.422;18.758;2023-02-02T01:32:13;97664.27;;;1.01;92.61
37904;BME280;23738;50.422;18.758;2023-02-02T01:34:40;97668.43;;;1.04;92.54
37904;BME280;23738;50.422;18.758;2023-02-02T01:37:09;97670.88;;;1.06;92.71
37904;BME280;23738;50.422;18.758;2023-02-02T01:39:37;97670.69;;;1.06;92.61
37904;BME280;23738;50.422;18.758;2023-02-02T01:42:11;97669.39;;;1.07;92.69
37904;BME280;23738;50.422;18.758;2023-02-02T01:47:51;97675.16;;;1.11;93.12
37904;BME280;23738;50.422;18.758;2023-02-02T01:50:22;97676.88;;;1.11;93.03
37904;BME280;23738;50.422;18.758;2023-02-02T01:52:52;97678.50;;;1.12;92.85
37904;BME280;23738;50.422;18.758;2023-02-02T01:55:22;97676.63;;;1.16;93.11
37904;BME280;23738;50.422;18.758;2023-02-02T01:57:52;97682.72;;;1.19;93.10
37904;BME280;23738;50.422;18.758;2023-02-02T02:00:21;97680.14;;;1.19;93.37
37904;BME280;23738;50.422;18.758;2023-02-02T02:02:52;97684.73;;;1.20;93.18
37904;BME280;23738;50.422;18.758;2023-02-02T02:05:25;97689.75;;;1.21;93.24
37904;BME280;23738;50.422;18.758;2023-02-02T02:08:01;97690.29;;;1.23;93.13
37904;BME280;23738;50.422;18.758;2023-02-02T02:10:29;97692.27;;;1.24;93.54
37904;BME280;23738;50.422;18.758;2023-02-02T02:12:57;97695.39;;;1.24;93.37
37904;BME280;23738;50.422;18.758;2023-02-02T02:15:25;97699.04;;;1.23;93.68
37904;BME280;23738;50.422;18.758;2023-02-02T02:18:21;97694.25;;;1.25;93.58
37904;BME280;23738;50.422;18.758;2023-02-02T02:24:50;97703.37;;;1.25;93.47
37904;BME280;23738;50.422;18.758;2023-02-02T02:28:01;97707.47;;;1.26;93.39
37904;BME280;23738;50.422;18.758;2023-02-02T02:30:49;97706.58;;;1.24;93.64
37904;BME280;23738;50.422;18.758;2023-02-02T02:33:25;97713.58;;;1.30;93.69
37904;BME280;23738;50.422;18.758;2023-02-02T02:36:04;97712.70;;;1.30;93.59
37904;BME280;23738;50.422;18.758;2023-02-02T02:38:40;97716.45;;;1.33;93.77
37904;BME280;23738;50.422;18.758;2023-02-02T02:41:12;97721.10;;;1.36;93.54
37904;BME280;23738;50.422;18.758;2023-02-02T02:43:46;97719.32;;;1.40;93.30
37904;BME280;23738;50.422;18.758;2023-02-02T02:46:16;97713.40;;;1.43;93.51
37904;BME280;23738;50.422;18.758;2023-02-02T02:48:44;97713.91;;;1.45;93.70
37904;BME280;23738;50.422;18.758;2023-02-02T02:51:39;97717.02;;;1.44;93.43
37904;BME280;23738;50.422;18.758;2023-02-02T02:54:07;97717.15;;;1.41;93.43
37904;BME280;23738;50.422;18.758;2023-02-02T02:56:43;97717.08;;;1.40;93.27
37904;BME280;23738;50.422;18.758;2023-02-02T02:59:18;97717.23;;;1.38;93.35
37904;BME280;23738;50.422;18.758;2023-02-02T03:01:57;97712.55;;;1.35;93.69
37904;BME280;23738;50.422;18.758;2023-02-02T03:04:35;97715.34;;;1.32;93.56
37904;BME280;23738;50.422;18.758;2023-02-02T03:07:09;97712.54;;;1.30;93.38
37904;BME280;23738;50.422;18.758;2023-02-02T03:09:41;97716.67;;;1.32;93.71
37904;BME280;23738;50.422;18.758;2023-02-02T03:12:10;97719.39;;;1.34;93.74
37904;BME280;23738;50.422;18.758;2023-02-02T03:14:38;97717.29;;;1.35;93.65
37904;BME280;23738;50.422;18.758;2023-02-02T03:17:05;97717.46;;;1.33;93.97
37904;BME280;23738;50.422;18.758;2023-02-02T03:19:32;97722.48;;;1.31;94.23
37904;BME280;23738;50.422;18.758;2023-02-02T03:22:00;97719.20;;;1.31;94.24
37904;BME280;23738;50.422;18.758;2023-02-02T03:24:27;97723.02;;;1.33;94.33
37904;BME280;23738;50.422;18.758;2023-02-02T03:26:54;97724.73;;;1.31;94.34
37904;BME280;23738;50.422;18.758;2023-02-02T03:29:22;97725.65;;;1.29;94.10
37904;BME280;23738;50.422;18.758;2023-02-02T03:31:49;97731.46;;;1.28;94.15
37904;BME280;23738;50.422;18.758;2023-02-02T03:34:17;97730.42;;;1.28;94.02
37904;BME280;23738;50.422;18.758;2023-02-02T03:36:44;97725.71;;;1.29;93.80
37904;BME280;23738;50.422;18.758;2023-02-02T03:39:11;97726.48;;;1.29;93.92
37904;BME280;23738;50.422;18.758;2023-02-02T03:41:38;97730.43;;;1.30;93.90
37904;BME280;23738;50.422;18.758;2023-02-02T03:44:05;97731.09;;;1.32;94.01
37904;BME280;23738;50.422;18.758;2023-02-02T03:46:32;97729.13;;;1.36;94.09
37904;BME280;23738;50.422;18.758;2023-02-02T03:49:00;97722.96;;;1.37;93.90
37904;BME280;23738;50.422;18.758;2023-02-02T03:51:28;97726.96;;;1.40;93.79
37904;BME280;23738;50.422;18.758;2023-02-02T03:53:55;97721.16;;;1.39;94.02
37904;BME280;23738;50.422;18.758;2023-02-02T03:56:22;97721.89;;;1.40;94.17
37904;BME280;23738;50.422;18.758;2023-02-02T03:58:49;97721.05;;;1.45;94.17
37904;BME280;23738;50.422;18.758;2023-02-02T04:01:16;97717.96;;;1.51;94.18
37904;BME280;23738;50.422;18.758;2023-02-02T04:03:51;97720.73;;;1.60;94.39
37904;BME280;23738;50.422;18.758;2023-02-02T04:06:18;97715.71;;;1.62;94.41
37904;BME280;23738;50.422;18.758;2023-02-02T04:08:46;97710.29;;;1.65;94.36
37904;BME280;23738;50.422;18.758;2023-02-02T04:11:13;97706.29;;;1.65;94.60
37904;BME280;23738;50.422;18.758;2023-02-02T04:13:40;97708.63;;;1.67;94.54
37904;BME280;23738;50.422;18.758;2023-02-02T04:16:09;97710.80;;;1.71;94.50
37904;BME280;23738;50.422;18.758;2023-02-02T04:18:37;97712.50;;;1.75;94.14
37904;BME280;23738;50.422;18.758;2023-02-02T04:21:06;97714.61;;;1.78;94.31
37904;BME280;23738;50.422;18.758;2023-02-02T04:23:34;97707.89;;;1.78;94.17
37904;BME280;23738;50.422;18.758;2023-02-02T04:26:02;97712.14;;;1.80;94.34
37904;BME280;23738;50.422;18.758;2023-02-02T04:28:30;97711.91;;;1.80;94.37
37904;BME280;23738;50.422;18.758;2023-02-02T04:30:57;97708.30;;;1.80;94.04
37904;BME280;23738;50.422;18.758;2023-02-02T04:33:26;97707.67;;;1.81;94.09
37904;BME280;23738;50.422;18.758;2023-02-02T04:35:53;97707.53;;;1.85;94.09
37904;BME280;23738;50.422;18.758;2023-02-02T04:38:20;97706.39;;;1.86;94.06
37904;BME280;23738;50.422;18.758;2023-02-02T04:40:48;97704.66;;;1.86;94.21
37904;BME280;23738;50.422;18.758;2023-02-02T04:43:15;97706.16;;;1.85;94.04
37904;BME280;23738;50.422;18.758;2023-02-02T04:45:42;97705.58;;;1.84;94.17
37904;BME280;23738;50.422;18.758;2023-02-02T04:48:10;97703.45;;;1.83;93.90
37904;BME280;23738;50.422;18.758;2023-02-02T04:50:37;97700.77;;;1.83;93.82
37904;BME280;23738;50.422;18.758;2023-02-02T04:53:05;97702.68;;;1.85;93.88
37904;BME280;23738;50.422;18.758;2023-02-02T04:55:36;97705.38;;;1.86;93.62
37904;BME280;23738;50.422;18.758;2023-02-02T04:58:04;97701.10;;;1.82;93.47
37904;BME280;23738;50.422;18.758;2023-02-02T05:00:31;97697.04;;;1.81;93.83
37904;BME280;23738;50.422;18.758;2023-02-02T05:02:59;97691.66;;;1.78;93.81
37904;BME280;23738;50.422;18.758;2023-02-02T05:05:27;97691.61;;;1.73;93.70
37904;BME280;23738;50.422;18.758;2023-02-02T05:07:54;97691.38;;;1.74;93.76
37904;BME280;23738;50.422;18.758;2023-02-02T05:10:21;97681.16;;;1.74;93.64
37904;BME280;23738;50.422;18.758;2023-02-02T05:12:50;97682.33;;;1.74;93.40
37904;BME280;23738;50.422;18.758;2023-02-02T05:15:18;97679.23;;;1.76;93.80
37904;BME280;23738;50.422;18.758;2023-02-02T05:17:47;97684.50;;;1.75;93.49
37904;BME280;23738;50.422;18.758;2023-02-02T05:20:15;97682.78;;;1.72;93.71
37904;BME280;23738;50.422;18.758;2023-02-02T05:22:42;97686.36;;;1.71;93.54
37904;BME280;23738;50.422;18.758;2023-02-02T05:25:10;97683.10;;;1.70;93.59
37904;BME280;23738;50.422;18.758;2023-02-02T05:27:37;97683.89;;;1.71;93.48
37904;BME280;23738;50.422;18.758;2023-02-02T05:30:07;97683.14;;;1.72;93.49
37904;BME280;23738;50.422;18.758;2023-02-02T05:32:35;97684.34;;;1.72;93.32
37904;BME280;23738;50.422;18.758;2023-02-02T05:35:02;97684.11;;;1.69;93.39
37904;BME280;23738;50.422;18.758;2023-02-02T05:37:29;97684.98;;;1.67;93.46
37904;BME280;23738;50.422;18.758;2023-02-02T05:39:56;97685.95;;;1.65;93.34
37904;BME280;23738;50.422;18.758;2023-02-02T05:42:23;97686.27;;;1.65;93.57
37904;BME280;23738;50.422;18.758;2023-02-02T05:44:51;97685.65;;;1.66;93.60
37904;BME280;23738;50.422;18.758;2023-02-02T05:47:18;97680.53;;;1.68;93.39
37904;BME280;23738;50.422;18.758;2023-02-02T05:49:45;97675.42;;;1.68;93.32
37904;BME280;23738;50.422;18.758;2023-02-02T05:52:15;97672.15;;;1.64;93.21
37904;BME280;23738;50.422;18.758;2023-02-02T05:54:44;97673.96;;;1.62;93.11
37904;BME280;23738;50.422;18.758;2023-02-02T05:57:11;97673.02;;;1.61;93.35
37904;BME280;23738;50.422;18.758;2023-02-02T05:59:38;97674.24;;;1.59;93.36
37904;BME280;23738;50.422;18.758;2023-02-02T06:02:05;97674.42;;;1.59;93.30
37904;BME280;23738;50.422;18.758;2023-02-02T06:04:33;97667.78;;;1.61;93.06
37904;BME280;23738;50.422;18.758;2023-02-02T06:07:00;97676.73;;;1.60;93.19
37904;BME280;23738;50.422;18.758;2023-02-02T06:09:27;97671.98;;;1.56;93.12
37904;BME280;23738;50.422;18.758;2023-02-02T06:11:54;97673.60;;;1.53;93.29
37904;BME280;23738;50.422;18.758;2023-02-02T06:14:21;97676.58;;;1.52;93.02
37904;BME280;23738;50.422;18.758;2023-02-02T06:16:48;97686.08;;;1.49;93.15
37904;BME280;23738;50.422;18.758;2023-02-02T06:19:16;97684.56;;;1.45;93.20
37904;BME280;23738;50.422;18.758;2023-02-02T06:21:43;97686.92;;;1.41;93.54
37904;BME280;23738;50.422;18.758;2023-02-02T06:24:10;97684.89;;;1.36;93.47
37904;BME280;23738;50.422;18.758;2023-02-02T06:26:37;97682.79;;;1.34;93.30
37904;BME280;23738;50.422;18.758;2023-02-02T06:29:05;97681.56;;;1.31;93.30
37904;BME280;23738;50.422;18.758;2023-02-02T06:31:32;97679.67;;;1.29;93.59
37904;BME280;23738;50.422;18.758;2023-02-02T06:33:59;97674.45;;;1.29;93.57
37904;BME280;23738;50.422;18.758;2023-02-02T06:36:27;97676.11;;;1.32;93.44
37904;BME280;23738;50.422;18.758;2023-02-02T06:38:56;97673.61;;;1.34;93.60
37904;BME280;23738;50.422;18.758;2023-02-02T06:41:24;97669.88;;;1.35;93.54
37904;BME280;23738;50.422;18.758;2023-02-02T06:43:51;97672.64;;;1.33;93.58
37904;BME280;23738;50.422;18.758;2023-02-02T06:46:18;97678.10;;;1.34;93.55
37904;BME280;23738;50.422;18.758;2023-02-02T06:48:46;97678.84;;;1.37;93.52
37904;BME280;23738;50.422;18.758;2023-02-02T06:51:13;97677.33;;;1.41;93.59
37904;BME280;23738;50.422;18.758;2023-02-02T06:53:40;97673.30;;;1.42;93.68
37904;BME280;23738;50.422;18.758;2023-02-02T06:56:10;97672.15;;;1.39;93.40
37904;BME280;23738;50.422;18.758;2023-02-02T06:58:38;97675.27;;;1.40;93.49
37904;BME280;23738;50.422;18.758;2023-02-02T07:01:08;97670.76;;;1.41;93.78
37904;BME280;23738;50.422;18.758;2023-02-02T07:03:35;97667.48;;;1.43;93.63
37904;BME280;23738;50.422;18.758;2023-02-02T07:06:11;97667.59;;;1.45;93.61
37904;BME280;23738;50.422;18.758;2023-02-02T07:08:39;97673.02;;;1.46;93.75
37904;BME280;23738;50.422;18.758;2023-02-02T07:11:06;97669.64;;;1.45;93.63
37904;BME280;23738;50.422;18.758;2023-02-02T07:13:34;97667.03;;;1.45;93.90
37904;BME280;23738;50.422;18.758;2023-02-02T07:16:03;97667.44;;;1.48;93.80
37904;BME280;23738;50.422;18.758;2023-02-02T07:18:30;97667.52;;;1.52;93.98
37904;BME280;23738;50.422;18.758;2023-02-02T07:20:59;97667.19;;;1.53;93.74
37904;BME280;23738;50.422;18.758;2023-02-02T07:23:26;97670.90;;;1.53;93.84
37904;BME280;23738;50.422;18.758;2023-02-02T07:26:01;97667.34;;;1.50;94.13
37904;BME280;23738;50.422;18.758;2023-02-02T07:28:29;97667.87;;;1.50;94.14
37904;BME280;23738;50.422;18.758;2023-02-02T07:30:56;97669.53;;;1.52;94.17
37904;BME280;23738;50.422;18.758;2023-02-02T07:33:23;97675.20;;;1.53;94.03
37904;BME280;23738;50.422;18.758;2023-02-02T07:35:51;97678.58;;;1.52;93.90
37904;BME280;23738;50.422;18.758;2023-02-02T07:38:18;97677.39;;;1.50;94.03
37904;BME280;23738;50.422;18.758;2023-02-02T07:40:46;97674.08;;;1.49;94.04
37904;BME280;23738;50.422;18.758;2023-02-02T07:43:13;97675.05;;;1.50;93.88
37904;BME280;23738;50.422;18.758;2023-02-02T07:45:40;97677.82;;;1.50;94.12
37904;BME280;23738;50.422;18.758;2023-02-02T07:48:09;97677.84;;;1.48;94.05
37904;BME280;23738;50.422;18.758;2023-02-02T07:50:36;97677.48;;;1.48;93.99
37904;BME280;23738;50.422;18.758;2023-02-02T07:53:03;97682.30;;;1.50;94.01
37904;BME280;23738;50.422;18.758;2023-02-02T07:55:30;97686.06;;;1.52;94.27
37904;BME280;23738;50.422;18.758;2023-02-02T07:57:57;97691.04;;;1.51;94.32
37904;BME280;23738;50.422;18.758;2023-02-02T08:00:25;97693.93;;;1.50;94.11
37904;BME280;23738;50.422;18.758;2023-02-02T08:02:52;97699.01;;;1.50;94.32
37904;BME280;23738;50.422;18.758;2023-02-02T08:05:19;97703.13;;;1.50;94.28
37904;BME280;23738;50.422;18.758;2023-02-02T08:07:48;97707.42;;;1.49;94.19
37904;BME280;23738;50.422;18.758;2023-02-02T08:10:16;97709.88;;;1.47;94.50
37904;BME280;23738;50.422;18.758;2023-02-02T08:12:43;97710.27;;;1.45;94.48
37904;BME280;23738;50.422;18.758;2023-02-02T08:15:11;97713.29;;;1.44;94.39
37904;BME280;23738;50.422;18.758;2023-02-02T08:17:39;97714.36;;;1.45;94.23
37904;BME280;23738;50.422;18.758;2023-02-02T08:20:12;97709.73;;;1.44;94.38
37904;BME280;23738;50.422;18.758;2023-02-02T08:22:39;97719.91;;;1.41;94.16
37904;BME280;23738;50.422;18.758;2023-02-02T08:25:08;97721.09;;;1.41;94.30
37904;BME280;23738;50.422;18.758;2023-02-02T08:27:35;97727.02;;;1.44;94.35
37904;BME280;23738;50.422;18.758;2023-02-02T08:30:04;97729.79;;;1.45;94.41
37904;BME280;23738;50.422;18.758;2023-02-02T08:32:31;97725.77;;;1.46;94.31
37904;BME280;23738;50.422;18.758;2023-02-02T08:34:58;97730.31;;;1.44;94.60
37904;BME280;23738;50.422;18.758;2023-02-02T08:37:26;97726.81;;;1.41;94.48
37904;BME280;23738;50.422;18.758;2023-02-02T08:39:53;97733.73;;;1.41;94.55
37904;BME280;23738;50.422;18.758;2023-02-02T08:42:20;97735.01;;;1.41;94.27
37904;BME280;23738;50.422;18.758;2023-02-02T08:44:47;97736.98;;;1.40;94.33
37904;BME280;23738;50.422;18.758;2023-02-02T08:47:15;97741.89;;;1.38;94.41
37904;BME280;23738;50.422;18.758;2023-02-02T08:49:42;97739.52;;;1.38;94.49
37904;BME280;23738;50.422;18.758;2023-02-02T08:52:10;97740.40;;;1.37;94.40
37904;BME280;23738;50.422;18.758;2023-02-02T08:54:37;97741.95;;;1.37;94.62
37904;BME280;23738;50.422;18.758;2023-02-02T08:57:05;97754.52;;;1.35;94.51
37904;BME280;23738;50.422;18.758;2023-02-02T08:59:32;97756.55;;;1.31;94.67
37904;BME280;23738;50.422;18.758;2023-02-02T09:01:59;97761.63;;;1.27;94.54
37904;BME280;23738;50.422;18.758;2023-02-02T09:04:26;97761.30;;;1.25;94.40
37904;BME280;23738;50.422;18.758;2023-02-02T09:06:54;97766.40;;;1.25;94.25
37904;BME280;23738;50.422;18.758;2023-02-02T09:09:21;97765.84;;;1.23;95.09
37904;BME280;23738;50.422;18.758;2023-02-02T09:11:48;97759.00;;;1.22;94.93
37904;BME280;23738;50.422;18.758;2023-02-02T09:14:15;97768.27;;;1.23;94.87
37904;BME280;23738;50.422;18.758;2023-02-02T09:16:42;97768.77;;;1.23;94.93
37904;BME280;23738;50.422;18.758;2023-02-02T09:19:11;97774.64;;;1.24;94.69
37904;BME280;23738;50.422;18.758;2023-02-02T09:21:38;97778.29;;;1.22;94.67
37904;BME280;23738;50.422;18.758;2023-02-02T09:24:08;97782.55;;;1.23;94.62
37904;BME280;23738;50.422;18.758;2023-02-02T09:26:35;97786.20;;;1.26;95.97
37904;BME280;23738;50.422;18.758;2023-02-02T09:29:06;97787.68;;;1.32;95.83
37904;BME280;23738;50.422;18.758;2023-02-02T09:31:35;97790.64;;;1.38;96.32
37904;BME280;23738;50.422;18.758;2023-02-02T09:34:04;97797.25;;;1.46;96.44
37904;BME280;23738;50.422;18.758;2023-02-02T09:36:32;97793.58;;;1.55;97.51
37904;BME280;23738;50.422;18.758;2023-02-02T09:38:59;97802.05;;;1.62;96.96
37904;BME280;23738;50.422;18.758;2023-02-02T09:41:52;97805.42;;;1.66;97.05
37904;BME280;23738;50.422;18.758;2023-02-02T09:44:26;97813.45;;;1.71;97.18
37904;BME280;23738;50.422;18.758;2023-02-02T09:47:07;97811.80;;;1.71;97.85
37904;BME280;23738;50.422;18.758;2023-02-02T09:49:47;97818.17;;;1.77;97.31
37904;BME280;23738;50.422;18.758;2023-02-02T09:52:22;97819.79;;;1.82;97.04
37904;BME280;23738;50.422;18.758;2023-02-02T09:54:53;97823.10;;;1.86;97.16
37904;BME280;23738;50.422;18.758;2023-02-02T09:57:26;97825.85;;;1.88;97.20
37904;BME280;23738;50.422;18.758;2023-02-02T09:59:55;97821.78;;;1.88;97.40
37904;BME280;23738;50.422;18.758;2023-02-02T10:02:25;97826.33;;;1.93;97.45
37904;BME280;23738;50.422;18.758;2023-02-02T10:04:59;97828.85;;;1.97;96.99
37904;BME280;23738;50.422;18.758;2023-02-02T10:07:31;97837.80;;;1.99;97.71
37904;BME280;23738;50.422;18.758;2023-02-02T10:10:03;97836.56;;;2.01;97.29
37904;BME280;23738;50.422;18.758;2023-02-02T10:12:40;97832.95;;;2.06;97.00
37904;BME280;23738;50.422;18.758;2023-02-02T10:15:17;97834.61;;;2.15;97.21
37904;BME280;23738;50.422;18.758;2023-02-02T10:17:51;97839.05;;;2.22;97.05
37904;BME280;23738;50.422;18.758;2023-02-02T10:20:29;97840.96;;;2.26;97.05
37904;BME280;23738;50.422;18.758;2023-02-02T10:23:07;97839.59;;;2.29;96.66
37904;BME280;23738;50.422;18.758;2023-02-02T10:25:39;97841.96;;;2.32;96.76
37904;BME280;23738;50.422;18.758;2023-02-02T10:28:16;97846.46;;;2.37;96.59
37904;BME280;23738;50.422;18.758;2023-02-02T10:30:46;97840.39;;;2.42;96.54
37904;BME280;23738;50.422;18.758;2023-02-02T10:33:22;97849.46;;;2.46;96.50
37904;BME280;23738;50.422;18.758;2023-02-02T10:35:59;97855.21;;;2.49;96.28
37904;BME280;23738;50.422;18.758;2023-02-02T10:38:37;97860.82;;;2.50;96.32
37904;BME280;23738;50.422;18.758;2023-02-02T10:41:14;97861.86;;;2.50;96.21
37904;BME280;23738;50.422;18.758;2023-02-02T10:44:01;97865.52;;;2.52;96.12
37904;BME280;23738;50.422;18.758;2023-02-02T10:46:36;97866.61;;;2.58;96.37
37904;BME280;23738;50.422;18.758;2023-02-02T10:49:28;97864.98;;;2.60;96.16
37904;BME280;23738;50.422;18.758;2023-02-02T10:52:03;97875.96;;;2.60;95.68
37904;BME280;23738;50.422;18.758;2023-02-02T10:54:49;97876.65;;;2.60;95.10
37904;BME280;23738;50.422;18.758;2023-02-02T10:57:25;97880.89;;;2.59;94.59
37904;BME280;23738;50.422;18.758;2023-02-02T11:00:03;97886.23;;;2.60;95.01
37904;BME280;23738;50.422;18.758;2023-02-02T11:02:32;97891.15;;;2.59;95.11
37904;BME280;23738;50.422;18.758;2023-02-02T11:04:59;97892.56;;;2.62;94.99
37904;BME280;23738;50.422;18.758;2023-02-02T11:07:45;97894.70;;;2.66;94.99
37904;BME280;23738;50.422;18.758;2023-02-02T11:10:12;97893.07;;;2.71;95.07
37904;BME280;23738;50.422;18.758;2023-02-02T11:12:43;97892.95;;;2.73;94.81
37904;BME280;23738;50.422;18.758;2023-02-02T11:15:24;97888.85;;;2.74;94.54
37904;BME280;23738;50.422;18.758;2023-02-02T11:17:52;97888.42;;;2.78;94.52
37904;BME280;23738;50.422;18.758;2023-02-02T11:20:32;97895.50;;;2.85;94.91
37904;BME280;23738;50.422;18.758;2023-02-02T11:23:00;97894.01;;;2.92;94.19
37904;BME280;23738;50.422;18.758;2023-02-02T11:25:30;97894.25;;;2.96;94.24
37904;BME280;23738;50.422;18.758;2023-02-02T11:28:00;97897.70;;;2.98;94.51
37904;BME280;23738;50.422;18.758;2023-02-02T11:30:37;97897.48;;;2.98;94.33
37904;BME280;23738;50.422;18.758;2023-02-02T11:33:24;97902.60;;;2.96;94.23
37904;BME280;23738;50.422;18.758;2023-02-02T11:35:55;97906.20;;;2.93;94.43
37904;BME280;23738;50.422;18.758;2023-02-02T11:38:23;97904.73;;;2.92;94.42
37904;BME280;23738;50.422;18.758;2023-02-02T11:40:56;97911.13;;;2.91;93.77
37904;BME280;23738;50.422;18.758;2023-02-02T11:43:28;97918.96;;;2.88;94.03
37904;BME280;23738;50.422;18.758;2023-02-02T11:46:00;97923.14;;;2.85;93.92
37904;BME280;23738;50.422;18.758;2023-02-02T11:48:31;97924.48;;;2.84;93.77
37904;BME280;23738;50.422;18.758;2023-02-02T11:51:01;97933.31;;;2.82;93.89
37904;BME280;23738;50.422;18.758;2023-02-02T11:53:30;97939.70;;;2.81;93.76
37904;BME280;23738;50.422;18.758;2023-02-02T11:56:01;97945.50;;;2.81;93.81
37904;BME280;23738;50.422;18.758;2023-02-02T11:58:42;97943.54;;;2.81;93.51
37904;BME280;23738;50.422;18.758;2023-02-02T12:01:26;97948.44;;;2.81;93.36
37904;BME280;23738;50.422;18.758;2023-02-02T12:03:55;97951.21;;;2.80;93.04
37904;BME280;23738;50.422;18.758;2023-02-02T12:06:24;97953.72;;;2.80;93.07
37904;BME280;23738;50.422;18.758;2023-02-02T12:08:56;97955.95;;;2.81;93.51
37904;BME280;23738;50.422;18.758;2023-02-02T12:11:41;97961.85;;;2.82;93.13
37904;BME280;23738;50.422;18.758;2023-02-02T12:14:24;97965.10;;;2.83;92.62
37904;BME280;23738;50.422;18.758;2023-02-02T12:17:03;97971.50;;;2.85;92.46
37904;BME280;23738;50.422;18.758;2023-02-02T12:19:48;97970.61;;;2.88;92.96
37904;BME280;23738;50.422;18.758;2023-02-02T12:22:34;97974.30;;;2.89;92.36
37904;BME280;23738;50.422;18.758;2023-02-02T12:25:22;97972.73;;;2.89;92.49
37904;BME280;23738;50.422;18.758;2023-02-02T12:28:00;97972.83;;;2.92;92.79
37904;BME280;23738;50.422;18.758;2023-02-02T12:30:36;97976.88;;;2.93;92.18
37904;BME280;23738;50.422;18.758;2023-02-02T12:33:20;97978.50;;;2.94;92.25
37904;BME280;23738;50.422;18.758;2023-02-02T12:36:04;97980.05;;;2.96;91.82
37904;BME280;23738;50.422;18.758;2023-02-02T12:38:49;97981.98;;;2.99;91.17
37904;BME280;23738;50.422;18.758;2023-02-02T12:41:37;97981.30;;;3.00;91.48
37904;BME280;23738;50.422;18.758;2023-02-02T12:44:13;97979.80;;;3.03;89.91
37904;BME280;23738;50.422;18.758;2023-02-02T12:46:58;97980.48;;;3.08;90.16
37904;BME280;23738;50.422;18.758;2023-02-02T12:49:44;97990.58;;;3.18;89.43
37904;BME280;23738;50.422;18.758;2023-02-02T12:52:19;97991.84;;;3.22;89.53
37904;BME280;23738;50.422;18.758;2023-02-02T12:55:06;97994.25;;;3.22;89.32
37904;BME280;23738;50.422;18.758;2023-02-02T12:57:45;97999.44;;;3.26;90.20
37904;BME280;23738;50.422;18.758;2023-02-02T13:00:52;98008.02;;;3.30;88.04
37904;BME280;23738;50.422;18.758;2023-02-02T13:03:30;98013.98;;;3.34;89.46
37904;BME280;23738;50.422;18.758;2023-02-02T13:09:09;98016.88;;;3.36;88.10
37904;BME280;23738;50.422;18.758;2023-02-02T13:11:41;98022.91;;;3.42;88.51
37904;BME280;23738;50.422;18.758;2023-02-02T13:14:14;98022.56;;;3.43;87.87
37904;BME280;23738;50.422;18.758;2023-02-02T13:16:46;98026.39;;;3.45;87.72
37904;BME280;23738;50.422;18.758;2023-02-02T13:19:23;98025.90;;;3.48;87.89
37904;BME280;23738;50.422;18.758;2023-02-02T13:21:56;98032.33;;;3.51;88.41
37904;BME280;23738;50.422;18.758;2023-02-02T13:24:28;98035.86;;;3.54;88.47
37904;BME280;23738;50.422;18.758;2023-02-02T13:26:57;98035.51;;;3.56;87.67
37904;BME280;23738;50.422;18.758;2023-02-02T13:29:30;98040.17;;;3.57;88.42